sensor_id;sensor_type;location;lat;lon;timestamp;pressure;altitude;pressure_sealevel;temperature;humidity
17764;BME280;22245;52.832;13.816;2023-01-15T00:02:25;99510.34;;;9.06;86.10
17764;BME280;22245;52.832;13.816;2023-01-15T00:05:47;99508.50;;;9.06;85.55
17764;BME280;22245;52.832;13.816;2023-01-15T00:09:13;99482.34;;;9.11;85.25
17764;BME280;22245;52.832;13.816;2023-01-15T00:12:35;99491.81;;;9.14;85.72
17764;BME280;22245;52.832;13.816;2023-01-15T00:16:03;99489.16;;;9.14;85.52
17764;BME280;22245;52.832;13.816;2023-01-15T00:19:25;99483.72;;;9.16;84.89
17764;BME280;22245;52.832;13.816;2023-01-15T00:22:46;99482.72;;;9.17;84.72
17764;BME280;22245;52.832;13.816;2023-01-15T00:26:08;99488.72;;;9.19;84.51
17764;BME280;22245;52.832;13.816;2023-01-15T00:29:50;99477.09;;;9.20;84.46
17764;BME280;22245;52.832;13.816;2023-01-15T00:33:13;99474.13;;;9.23;84.34
17764;BME280;22245;52.832;13.816;2023-01-15T00:36:35;99481.94;;;9.24;83.99
17764;BME280;22245;52.832;13.816;2023-01-15T00:39:59;99478.28;;;9.25;83.87
17764;BME280;22245;52.832;13.816;2023-01-15T00:43:21;99477.16;;;9.28;83.89
17764;BME280;22245;52.832;13.816;2023-01-15T00:46:42;99466.53;;;9.28;83.76
17764;BME280;22245;52.832;13.816;2023-01-15T00:50:08;99453.91;;;9.30;83.99
17764;BME280;22245;52.832;13.816;2023-01-15T00:53:30;99458.91;;;9.33;83.31
17764;BME280;22245;52.832;13.816;2023-01-15T00:56:53;99450.81;;;9.35;83.09
17764;BME280;22245;52.832;13.816;2023-01-15T01:00:15;99435.38;;;9.38;83.11
17764;BME280;22245;52.832;13.816;2023-01-15T01:03:36;99443.19;;;9.40;83.11
17764;BME280;22245;52.832;13.816;2023-01-15T01:07:00;99446.69;;;9.40;83.04
17764;BME280;22245;52.832;13.816;2023-01-15T01:10:21;99450.00;;;9.43;82.69
17764;BME280;22245;52.832;13.816;2023-01-15T01:13:44;99447.22;;;9.44;82.68
17764;BME280;22245;52.832;13.816;2023-01-15T01:17:06;99445.91;;;9.48;82.62
17764;BME280;22245;52.832;13.816;2023-01-15T01:20:28;99436.63;;;9.52;82.77
17764;BME280;22245;52.832;13.816;2023-01-15T01:23:51;99430.00;;;9.56;82.43
17764;BME280;22245;52.832;13.816;2023-01-15T01:27:13;99424.22;;;9.61;82.15
17764;BME280;22245;52.832;13.816;2023-01-15T01:30:37;99428.69;;;9.61;82.07
17764;BME280;22245;52.832;13.816;2023-01-15T01:33:59;99431.34;;;9.61;81.94
17764;BME280;22245;52.832;13.816;2023-01-15T01:37:21;99429.56;;;9.61;82.00
17764;BME280;22245;52.832;13.816;2023-01-15T01:40:45;99441.16;;;9.60;82.30
17764;BME280;22245;52.832;13.816;2023-01-15T01:47:45;99444.88;;;9.67;81.67
17764;BME280;22245;52.832;13.816;2023-01-15T01:51:07;99444.41;;;9.72;81.16
17764;BME280;22245;52.832;13.816;2023-01-15T01:54:30;99430.25;;;9.72;81.43
17764;BME280;22245;52.832;13.816;2023-01-15T01:57:58;99402.22;;;9.77;81.49
17764;BME280;22245;52.832;13.816;2023-01-15T02:01:23;99402.03;;;9.79;81.08
17764;BME280;22245;52.832;13.816;2023-01-15T02:04:45;99415.50;;;9.77;80.85
17764;BME280;22245;52.832;13.816;2023-01-15T02:08:08;99426.66;;;9.81;80.76
17764;BME280;22245;52.832;13.816;2023-01-15T02:11:31;99449.59;;;9.82;81.23
17764;BME280;22245;52.832;13.816;2023-01-15T02:15:01;99455.75;;;9.82;81.28
17764;BME280;22245;52.832;13.816;2023-01-15T02:18:30;99446.63;;;9.85;81.73
17764;BME280;22245;52.832;13.816;2023-01-15T02:22:03;99441.00;;;9.88;82.33
17764;BME280;22245;52.832;13.816;2023-01-15T02:25:33;99437.03;;;9.92;82.92
17764;BME280;22245;52.832;13.816;2023-01-15T02:29:02;99431.72;;;9.92;83.11
17764;BME280;22245;52.832;13.816;2023-01-15T02:32:30;99432.38;;;9.94;83.08
17764;BME280;22245;52.832;13.816;2023-01-15T02:35:56;99428.72;;;9.95;83.15
17764;BME280;22245;52.832;13.816;2023-01-15T02:39:25;99436.72;;;9.95;82.88
17764;BME280;22245;52.832;13.816;2023-01-15T02:42:52;99427.72;;;9.96;83.30
17764;BME280;22245;52.832;13.816;2023-01-15T02:46:18;99433.06;;;9.96;83.70
17764;BME280;22245;52.832;13.816;2023-01-15T02:49:43;99437.38;;;9.97;83.80
17764;BME280;22245;52.832;13.816;2023-01-15T02:53:12;99428.56;;;9.97;84.06
17764;BME280;22245;52.832;13.816;2023-01-15T02:56:36;99414.91;;;9.92;84.34
17764;BME280;22245;52.832;13.816;2023-01-15T03:00:03;99420.06;;;9.93;84.53
17764;BME280;22245;52.832;13.816;2023-01-15T03:03:34;99422.72;;;9.93;85.10
17764;BME280;22245;52.832;13.816;2023-01-15T03:07:00;99413.91;;;9.93;85.31
17764;BME280;22245;52.832;13.816;2023-01-15T03:10:35;99413.75;;;9.94;84.91
17764;BME280;22245;52.832;13.816;2023-01-15T03:14:02;99411.91;;;9.95;85.16
17764;BME280;22245;52.832;13.816;2023-01-15T03:17:33;99415.56;;;9.94;84.63
17764;BME280;22245;52.832;13.816;2023-01-15T03:20:59;99407.78;;;9.92;85.33
17764;BME280;22245;52.832;13.816;2023-01-15T03:24:29;99409.44;;;9.93;84.87
17764;BME280;22245;52.832;13.816;2023-01-15T03:27:53;99404.25;;;9.92;85.50
17764;BME280;22245;52.832;13.816;2023-01-15T03:31:20;99405.13;;;9.92;85.75
17764;BME280;22245;52.832;13.816;2023-01-15T03:34:45;99398.94;;;9.92;85.89
17764;BME280;22245;52.832;13.816;2023-01-15T03:38:13;99394.47;;;9.92;85.77
17764;BME280;22245;52.832;13.816;2023-01-15T03:41:45;99396.13;;;9.93;86.24
17764;BME280;22245;52.832;13.816;2023-01-15T03:45:11;99401.28;;;9.95;86.33
17764;BME280;22245;52.832;13.816;2023-01-15T03:48:41;99399.78;;;9.92;86.06
17764;BME280;22245;52.832;13.816;2023-01-15T03:52:10;99411.44;;;9.91;86.09
17764;BME280;22245;52.832;13.816;2023-01-15T03:55:40;99426.72;;;9.89;86.66
17764;BME280;22245;52.832;13.816;2023-01-15T03:59:09;99427.19;;;9.84;87.36
17764;BME280;22245;52.832;13.816;2023-01-15T04:02:46;99438.47;;;9.87;87.19
17764;BME280;22245;52.832;13.816;2023-01-15T04:06:10;99434.00;;;9.87;86.75
17764;BME280;22245;52.832;13.816;2023-01-15T04:09:36;99439.34;;;9.87;87.07
17764;BME280;22245;52.832;13.816;2023-01-15T04:13:01;99449.13;;;9.87;87.20
17764;BME280;22245;52.832;13.816;2023-01-15T04:16:25;99467.78;;;9.68;85.92
17764;BME280;22245;52.832;13.816;2023-01-15T04:19:47;99483.38;;;9.37;83.20
17764;BME280;22245;52.832;13.816;2023-01-15T04:23:08;99508.13;;;9.19;80.90
17764;BME280;22245;52.832;13.816;2023-01-15T04:26:29;99517.75;;;9.02;79.77
17764;BME280;22245;52.832;13.816;2023-01-15T04:29:52;99522.00;;;8.95;79.87
17764;BME280;22245;52.832;13.816;2023-01-15T04:33:14;99520.19;;;8.77;79.82
17764;BME280;22245;52.832;13.816;2023-01-15T04:36:35;99532.97;;;8.64;80.06
17764;BME280;22245;52.832;13.816;2023-01-15T04:39:57;99538.59;;;8.51;79.96
17764;BME280;22245;52.832;13.816;2023-01-15T04:43:18;99540.44;;;8.50;80.11
17764;BME280;22245;52.832;13.816;2023-01-15T04:46:59;99539.25;;;8.35;80.02
17764;BME280;22245;52.832;13.816;2023-01-15T04:50:22;99549.81;;;8.07;78.60
17764;BME280;22245;52.832;13.816;2023-01-15T04:53:43;99555.28;;;7.86;78.97
17764;BME280;22245;52.832;13.816;2023-01-15T04:57:05;99570.81;;;7.71;77.16
17764;BME280;22245;52.832;13.816;2023-01-15T05:00:27;99566.47;;;7.60;75.84
17764;BME280;22245;52.832;13.816;2023-01-15T05:03:50;99567.88;;;7.54;75.04
17764;BME280;22245;52.832;13.816;2023-01-15T05:07:11;99583.09;;;7.42;75.90
17764;BME280;22245;52.832;13.816;2023-01-15T05:10:33;99567.22;;;7.42;76.71
17764;BME280;22245;52.832;13.816;2023-01-15T05:13:55;99578.22;;;7.47;77.21
17764;BME280;22245;52.832;13.816;2023-01-15T05:17:16;99569.97;;;7.50;76.33
17764;BME280;22245;52.832;13.816;2023-01-15T05:20:39;99559.38;;;7.50;75.31
17764;BME280;22245;52.832;13.816;2023-01-15T05:24:03;99556.16;;;7.47;75.48
17764;BME280;22245;52.832;13.816;2023-01-15T05:27:25;99566.06;;;7.45;76.31
17764;BME280;22245;52.832;13.816;2023-01-15T05:30:46;99571.25;;;7.46;76.58
17764;BME280;22245;52.832;13.816;2023-01-15T05:34:08;99581.84;;;7.46;76.86
17764;BME280;22245;52.832;13.816;2023-01-15T05:37:31;99592.03;;;7.41;77.33
17764;BME280;22245;52.832;13.816;2023-01-15T05:40:53;99586.84;;;7.39;76.60
17764;BME280;22245;52.832;13.816;2023-01-15T05:44:17;99580.16;;;7.35;76.77
17764;BME280;22245;52.832;13.816;2023-01-15T05:47:38;99576.81;;;7.33;77.13
17764;BME280;22245;52.832;13.816;2023-01-15T05:51:00;99587.69;;;7.30;77.70
17764;BME280;22245;52.832;13.816;2023-01-15T05:54:25;99589.38;;;7.31;77.08
17764;BME280;22245;52.832;13.816;2023-01-15T05:57:48;99586.03;;;7.29;77.74
17764;BME280;22245;52.832;13.816;2023-01-15T06:01:09;99590.63;;;7.27;77.96
17764;BME280;22245;52.832;13.816;2023-01-15T06:04:31;99586.16;;;7.28;77.43
17764;BME280;22245;52.832;13.816;2023-01-15T06:07:53;99589.91;;;7.25;77.58
17764;BME280;22245;52.832;13.816;2023-01-15T06:11:16;99571.38;;;7.25;77.06
17764;BME280;22245;52.832;13.816;2023-01-15T06:14:37;99583.94;;;7.23;76.19
17764;BME280;22245;52.832;13.816;2023-01-15T06:17:59;99584.22;;;7.20;76.89
17764;BME280;22245;52.832;13.816;2023-01-15T06:21:21;99578.19;;;7.18;76.64
17764;BME280;22245;52.832;13.816;2023-01-15T06:24:42;99573.84;;;7.17;77.19
17764;BME280;22245;52.832;13.816;2023-01-15T06:28:06;99558.13;;;7.15;77.53
17764;BME280;22245;52.832;13.816;2023-01-15T06:31:28;99553.66;;;7.16;77.63
17764;BME280;22245;52.832;13.816;2023-01-15T06:34:51;99568.56;;;7.17;77.51
17764;BME280;22245;52.832;13.816;2023-01-15T06:38:13;99573.03;;;7.16;77.01
17764;BME280;22245;52.832;13.816;2023-01-15T06:41:34;99587.38;;;7.14;77.35
17764;BME280;22245;52.832;13.816;2023-01-15T06:45:15;99591.84;;;7.13;76.91
17764;BME280;22245;52.832;13.816;2023-01-15T06:48:54;99576.94;;;7.12;76.78
17764;BME280;22245;52.832;13.816;2023-01-15T06:52:16;99580.56;;;7.11;77.21
17764;BME280;22245;52.832;13.816;2023-01-15T06:55:37;99574.56;;;7.09;77.39
17764;BME280;22245;52.832;13.816;2023-01-15T06:58:58;99580.00;;;7.07;77.37
17764;BME280;22245;52.832;13.816;2023-01-15T07:02:21;99568.69;;;7.05;76.99
17764;BME280;22245;52.832;13.816;2023-01-15T07:05:43;99573.19;;;7.05;77.52
17764;BME280;22245;52.832;13.816;2023-01-15T07:09:05;99576.78;;;7.04;77.50
17764;BME280;22245;52.832;13.816;2023-01-15T07:12:26;99597.97;;;7.04;77.39
17764;BME280;22245;52.832;13.816;2023-01-15T07:15:49;99589.47;;;7.00;77.20
17764;BME280;22245;52.832;13.816;2023-01-15T07:19:12;99602.69;;;7.00;77.64
17764;BME280;22245;52.832;13.816;2023-01-15T07:22:34;99602.69;;;7.00;77.30
17764;BME280;22245;52.832;13.816;2023-01-15T07:25:55;99601.03;;;6.99;77.33
17764;BME280;22245;52.832;13.816;2023-01-15T07:29:17;99609.94;;;6.98;77.35
17764;BME280;22245;52.832;13.816;2023-01-15T07:32:38;99603.78;;;6.98;77.77
17764;BME280;22245;52.832;13.816;2023-01-15T07:36:02;99600.59;;;6.94;77.61
17764;BME280;22245;52.832;13.816;2023-01-15T07:39:24;99592.66;;;6.94;77.53
17764;BME280;22245;52.832;13.816;2023-01-15T07:42:45;99580.41;;;6.93;77.72
17764;BME280;22245;52.832;13.816;2023-01-15T07:46:24;99577.03;;;6.91;76.95
17764;BME280;22245;52.832;13.816;2023-01-15T07:50:04;99599.91;;;6.92;77.04
17764;BME280;22245;52.832;13.816;2023-01-15T07:53:28;99607.13;;;6.90;76.77
17764;BME280;22245;52.832;13.816;2023-01-15T07:56:50;99617.72;;;6.90;76.96
17764;BME280;22245;52.832;13.816;2023-01-15T08:00:15;99610.59;;;6.90;76.97
17764;BME280;22245;52.832;13.816;2023-01-15T08:03:40;99612.16;;;6.93;76.69
17764;BME280;22245;52.832;13.816;2023-01-15T08:07:02;99617.31;;;6.94;76.82
17764;BME280;22245;52.832;13.816;2023-01-15T08:10:25;99616.47;;;6.94;76.11
17764;BME280;22245;52.832;13.816;2023-01-15T08:13:47;99631.22;;;6.97;75.79
17764;BME280;22245;52.832;13.816;2023-01-15T08:17:26;99622.47;;;6.96;75.69
17764;BME280;22245;52.832;13.816;2023-01-15T08:20:48;99622.47;;;6.96;75.84
17764;BME280;22245;52.832;13.816;2023-01-15T08:24:12;99633.06;;;6.96;75.84
17764;BME280;22245;52.832;13.816;2023-01-15T08:27:35;99624.16;;;6.97;74.62
17764;BME280;22245;52.832;13.816;2023-01-15T08:30:57;99610.63;;;7.00;75.08
17764;BME280;22245;52.832;13.816;2023-01-15T08:34:18;99600.88;;;7.01;75.04
17764;BME280;22245;52.832;13.816;2023-01-15T08:37:41;99600.75;;;7.02;75.37
17764;BME280;22245;52.832;13.816;2023-01-15T08:41:05;99606.03;;;7.02;75.34
17764;BME280;22245;52.832;13.816;2023-01-15T08:44:28;99622.34;;;7.07;74.59
17764;BME280;22245;52.832;13.816;2023-01-15T08:47:49;99626.66;;;7.08;74.99
17764;BME280;22245;52.832;13.816;2023-01-15T08:51:14;99634.63;;;7.08;74.73
17764;BME280;22245;52.832;13.816;2023-01-15T08:54:36;99634.63;;;7.08;74.79
17764;BME280;22245;52.832;13.816;2023-01-15T08:58:00;99633.09;;;7.06;74.83
17764;BME280;22245;52.832;13.816;2023-01-15T09:01:23;99626.66;;;7.08;74.41
17764;BME280;22245;52.832;13.816;2023-01-15T09:04:45;99643.41;;;7.09;74.04
17764;BME280;22245;52.832;13.816;2023-01-15T09:08:07;99641.31;;;7.13;74.24
17764;BME280;22245;52.832;13.816;2023-01-15T09:11:28;99628.78;;;7.15;74.44
17764;BME280;22245;52.832;13.816;2023-01-15T09:14:50;99629.47;;;7.17;73.85
17764;BME280;22245;52.832;13.816;2023-01-15T09:18:23;99634.06;;;7.15;74.40
17764;BME280;22245;52.832;13.816;2023-01-15T09:21:44;99654.97;;;7.18;73.80
17764;BME280;22245;52.832;13.816;2023-01-15T09:25:07;99644.38;;;7.18;73.28
17764;BME280;22245;52.832;13.816;2023-01-15T09:28:28;99657.38;;;7.21;72.83
17764;BME280;22245;52.832;13.816;2023-01-15T09:31:50;99644.13;;;7.21;73.59
17764;BME280;22245;52.832;13.816;2023-01-15T09:35:14;99653.47;;;7.25;73.14
17764;BME280;22245;52.832;13.816;2023-01-15T09:38:35;99643.44;;;7.29;72.99
17764;BME280;22245;52.832;13.816;2023-01-15T09:42:08;99643.31;;;7.30;72.93
17764;BME280;22245;52.832;13.816;2023-01-15T09:45:39;99641.34;;;7.32;72.63
17764;BME280;22245;52.832;13.816;2023-01-15T09:49:11;99653.47;;;7.35;72.50
17764;BME280;22245;52.832;13.816;2023-01-15T09:53:01;99653.19;;;7.38;72.07
17764;BME280;22245;52.832;13.816;2023-01-15T09:56:27;99659.22;;;7.40;71.86
17764;BME280;22245;52.832;13.816;2023-01-15T09:59:53;99657.28;;;7.42;71.64
17764;BME280;22245;52.832;13.816;2023-01-15T10:03:26;99669.66;;;7.42;71.11
17764;BME280;22245;52.832;13.816;2023-01-15T10:06:57;99670.25;;;7.45;71.38
17764;BME280;22245;52.832;13.816;2023-01-15T10:10:24;99670.78;;;7.49;70.82
17764;BME280;22245;52.832;13.816;2023-01-15T10:13:51;99669.69;;;7.51;70.84
17764;BME280;22245;52.832;13.816;2023-01-15T10:17:26;99662.16;;;7.57;70.79
17764;BME280;22245;52.832;13.816;2023-01-15T10:21:03;99656.84;;;7.57;70.80
17764;BME280;22245;52.832;13.816;2023-01-15T10:24:35;99651.44;;;7.58;70.81
17764;BME280;22245;52.832;13.816;2023-01-15T10:28:07;99655.88;;;7.58;69.49
17764;BME280;22245;52.832;13.816;2023-01-15T10:31:47;99643.31;;;7.60;69.04
17764;BME280;22245;52.832;13.816;2023-01-15T10:35:35;99654.91;;;7.59;69.12
17764;BME280;22245;52.832;13.816;2023-01-15T10:39:03;99635.09;;;7.63;69.49
17764;BME280;22245;52.832;13.816;2023-01-15T10:42:33;99644.59;;;7.65;68.63
17764;BME280;22245;52.832;13.816;2023-01-15T10:45:59;99630.09;;;7.70;68.73
17764;BME280;22245;52.832;13.816;2023-01-15T10:49:26;99649.34;;;7.72;68.28
17764;BME280;22245;52.832;13.816;2023-01-15T10:52:51;99647.50;;;7.72;67.55
17764;BME280;22245;52.832;13.816;2023-01-15T10:56:25;99649.19;;;7.73;67.53
17764;BME280;22245;52.832;13.816;2023-01-15T10:59:52;99653.50;;;7.74;67.92
17764;BME280;22245;52.832;13.816;2023-01-15T11:03:21;99638.16;;;7.78;67.83
17764;BME280;22245;52.832;13.816;2023-01-15T11:06:43;99650.44;;;7.79;67.53
17764;BME280;22245;52.832;13.816;2023-01-15T11:10:08;99645.13;;;7.79;66.79
17764;BME280;22245;52.832;13.816;2023-01-15T11:13:31;99652.53;;;7.85;67.14
17764;BME280;22245;52.832;13.816;2023-01-15T11:17:12;99658.13;;;7.92;66.86
17764;BME280;22245;52.832;13.816;2023-01-15T11:20:54;99656.97;;;7.94;66.07
17764;BME280;22245;52.832;13.816;2023-01-15T11:24:16;99643.88;;;7.93;66.23
17764;BME280;22245;52.832;13.816;2023-01-15T11:27:39;99652.66;;;7.93;66.69
17764;BME280;22245;52.832;13.816;2023-01-15T11:31:09;99655.06;;;7.96;65.71
17764;BME280;22245;52.832;13.816;2023-01-15T11:34:32;99654.31;;;7.94;65.43
17764;BME280;22245;52.832;13.816;2023-01-15T11:38:13;99664.94;;;7.94;65.98
17764;BME280;22245;52.832;13.816;2023-01-15T11:41:35;99668.56;;;7.93;65.03
17764;BME280;22245;52.832;13.816;2023-01-15T11:45:16;99652.41;;;7.96;65.54
17764;BME280;22245;52.832;13.816;2023-01-15T11:48:56;99657.72;;;7.96;65.22
17764;BME280;22245;52.832;13.816;2023-01-15T11:52:36;99648.09;;;7.95;64.74
17764;BME280;22245;52.832;13.816;2023-01-15T11:56:03;99637.19;;;7.99;64.54
17764;BME280;22245;52.832;13.816;2023-01-15T11:59:26;99643.03;;;8.02;65.14
17764;BME280;22245;52.832;13.816;2023-01-15T12:02:50;99626.13;;;8.03;64.51
17764;BME280;22245;52.832;13.816;2023-01-15T12:06:12;99624.88;;;8.07;64.56
17764;BME280;22245;52.832;13.816;2023-01-15T12:09:56;99638.69;;;8.11;64.17
17764;BME280;22245;52.832;13.816;2023-01-15T12:13:27;99636.03;;;8.11;63.82
17764;BME280;22245;52.832;13.816;2023-01-15T12:16:58;99633.09;;;8.14;63.32
17764;BME280;22245;52.832;13.816;2023-01-15T12:20:25;99649.00;;;8.14;63.05
17764;BME280;22245;52.832;13.816;2023-01-15T12:27:50;99649.00;;;8.14;63.01
17764;BME280;22245;52.832;13.816;2023-01-15T12:31:17;99645.50;;;8.14;62.56
17764;BME280;22245;52.832;13.816;2023-01-15T12:34:45;99635.06;;;8.12;62.26
17764;BME280;22245;52.832;13.816;2023-01-15T12:38:15;99640.06;;;8.15;62.35
17764;BME280;22245;52.832;13.816;2023-01-15T12:41:40;99627.50;;;8.17;62.38
17764;BME280;22245;52.832;13.816;2023-01-15T12:45:23;99632.69;;;8.19;62.14
17764;BME280;22245;52.832;13.816;2023-01-15T12:48:51;99626.13;;;8.13;61.73
17764;BME280;22245;52.832;13.816;2023-01-15T12:52:18;99619.72;;;8.16;62.88
17764;BME280;22245;52.832;13.816;2023-01-15T12:55:48;99623.06;;;8.18;61.90
17764;BME280;22245;52.832;13.816;2023-01-15T12:59:17;99621.38;;;8.17;61.46
17764;BME280;22245;52.832;13.816;2023-01-15T13:02:58;99618.72;;;8.17;61.60
17764;BME280;22245;52.832;13.816;2023-01-15T13:06:23;99633.78;;;8.16;60.86
17764;BME280;22245;52.832;13.816;2023-01-15T13:09:52;99633.09;;;8.14;61.41
17764;BME280;22245;52.832;13.816;2023-01-15T13:13:18;99630.03;;;8.09;60.98
17764;BME280;22245;52.832;13.816;2023-01-15T13:16:48;99638.00;;;8.09;61.15
17764;BME280;22245;52.832;13.816;2023-01-15T13:20:32;99625.72;;;8.08;61.07
17764;BME280;22245;52.832;13.816;2023-01-15T13:24:16;99632.69;;;8.09;61.24
17764;BME280;22245;52.832;13.816;2023-01-15T13:27:50;99634.22;;;8.11;61.26
17764;BME280;22245;52.832;13.816;2023-01-15T13:31:30;99621.63;;;8.14;61.32
17764;BME280;22245;52.832;13.816;2023-01-15T13:34:59;99636.59;;;8.15;60.96
17764;BME280;22245;52.832;13.816;2023-01-15T13:38:27;99624.06;;;8.07;60.25
17764;BME280;22245;52.832;13.816;2023-01-15T13:41:53;99645.09;;;8.08;60.70
17764;BME280;22245;52.832;13.816;2023-01-15T13:45:35;99620.53;;;8.06;60.39
17764;BME280;22245;52.832;13.816;2023-01-15T13:48:57;99608.28;;;8.05;60.69
17764;BME280;22245;52.832;13.816;2023-01-15T13:52:22;99613.03;;;8.02;60.72
17764;BME280;22245;52.832;13.816;2023-01-15T13:55:49;99616.38;;;8.04;59.89
17764;BME280;22245;52.832;13.816;2023-01-15T14:02:50;99621.97;;;8.01;60.21
17764;BME280;22245;52.832;13.816;2023-01-15T14:06:12;99631.72;;;8.00;60.26
17764;BME280;22245;52.832;13.816;2023-01-15T14:09:34;99641.50;;;8.00;60.75
17764;BME280;22245;52.832;13.816;2023-01-15T14:16:49;99665.38;;;8.00;60.48
17764;BME280;22245;52.832;13.816;2023-01-15T14:20:35;99660.47;;;7.95;60.35
17764;BME280;22245;52.832;13.816;2023-01-15T14:24:18;99676.38;;;7.95;59.75
17764;BME280;22245;52.832;13.816;2023-01-15T14:27:53;99679.16;;;7.93;60.45
17764;BME280;22245;52.832;13.816;2023-01-15T14:31:28;99690.50;;;7.95;60.26
17764;BME280;22245;52.832;13.816;2023-01-15T14:34:55;99695.25;;;8.02;60.16
17764;BME280;22245;52.832;13.816;2023-01-15T14:38:22;99702.50;;;8.00;60.04
17764;BME280;22245;52.832;13.816;2023-01-15T14:41:44;99702.22;;;8.03;59.76
17764;BME280;22245;52.832;13.816;2023-01-15T14:45:24;99716.56;;;8.00;59.48
17764;BME280;22245;52.832;13.816;2023-01-15T14:48:47;99710.84;;;7.95;59.11
17764;BME280;22245;52.832;13.816;2023-01-15T14:52:09;99723.00;;;7.97;59.28
17764;BME280;22245;52.832;13.816;2023-01-15T14:55:35;99717.72;;;7.97;59.11
17764;BME280;22245;52.832;13.816;2023-01-15T14:59:02;99734.44;;;7.98;59.01
17764;BME280;22245;52.832;13.816;2023-01-15T15:02:33;99724.25;;;7.93;58.47
17764;BME280;22245;52.832;13.816;2023-01-15T15:05:56;99725.91;;;7.94;58.87
17764;BME280;22245;52.832;13.816;2023-01-15T15:09:26;99723.13;;;7.96;59.40
17764;BME280;22245;52.832;13.816;2023-01-15T15:12:55;99709.19;;;7.94;58.76
17764;BME280;22245;52.832;13.816;2023-01-15T15:16:25;99725.91;;;7.94;59.55
17764;BME280;22245;52.832;13.816;2023-01-15T15:19:50;99719.66;;;7.95;58.84
17764;BME280;22245;52.832;13.816;2023-01-15T15:23:19;99724.13;;;7.95;59.42
17764;BME280;22245;52.832;13.816;2023-01-15T15:26:42;99715.59;;;7.91;59.33
17764;BME280;22245;52.832;13.816;2023-01-15T15:30:10;99701.50;;;7.91;59.39
17764;BME280;22245;52.832;13.816;2023-01-15T15:33:36;99713.22;;;7.88;60.00
17764;BME280;22245;52.832;13.816;2023-01-15T15:37:02;99710.44;;;7.90;59.38
17764;BME280;22245;52.832;13.816;2023-01-15T15:40:28;99707.78;;;7.90;59.87
17764;BME280;22245;52.832;13.816;2023-01-15T15:43:55;99710.84;;;7.85;59.69
17764;BME280;22245;52.832;13.816;2023-01-15T15:47:38;99710.44;;;7.80;59.57
17764;BME280;22245;52.832;13.816;2023-01-15T15:51:26;99709.03;;;7.76;59.88
17764;BME280;22245;52.832;13.816;2023-01-15T15:54:57;99715.03;;;7.78;60.48
17764;BME280;22245;52.832;13.816;2023-01-15T15:58:23;99712.38;;;7.78;60.00
17764;BME280;22245;52.832;13.816;2023-01-15T16:01:46;99701.91;;;7.76;59.70
17764;BME280;22245;52.832;13.816;2023-01-15T16:05:22;99700.94;;;7.67;59.86
17764;BME280;22245;52.832;13.816;2023-01-15T16:08:50;99703.19;;;7.62;59.88
17764;BME280;22245;52.832;13.816;2023-01-15T16:12:14;99709.56;;;7.60;59.75
17764;BME280;22245;52.832;13.816;2023-01-15T16:15:38;99699.38;;;7.55;59.66
17764;BME280;22245;52.832;13.816;2023-01-15T16:19:01;99701.88;;;7.47;59.47
17764;BME280;22245;52.832;13.816;2023-01-15T16:22:25;99693.50;;;7.42;59.57
17764;BME280;22245;52.832;13.816;2023-01-15T16:25:57;99686.53;;;7.41;59.39
17764;BME280;22245;52.832;13.816;2023-01-15T16:29:21;99699.06;;;7.38;59.11
17764;BME280;22245;52.832;13.816;2023-01-15T16:32:45;99688.59;;;7.37;59.01
17764;BME280;22245;52.832;13.816;2023-01-15T16:36:08;99701.44;;;7.32;58.87
17764;BME280;22245;52.832;13.816;2023-01-15T16:39:38;99701.44;;;7.32;58.33
17764;BME280;22245;52.832;13.816;2023-01-15T16:43:06;99711.19;;;7.31;58.35
17764;BME280;22245;52.832;13.816;2023-01-15T16:46:30;99716.63;;;7.30;58.13
17764;BME280;22245;52.832;13.816;2023-01-15T16:53:39;99707.09;;;7.17;58.45
17764;BME280;22245;52.832;13.816;2023-01-15T16:57:03;99715.44;;;7.13;58.08
17764;BME280;22245;52.832;13.816;2023-01-15T17:00:28;99713.66;;;7.13;58.49
17764;BME280;22245;52.832;13.816;2023-01-15T17:03:52;99705.81;;;7.12;58.55
17764;BME280;22245;52.832;13.816;2023-01-15T17:07:17;99705.81;;;7.12;58.44
17764;BME280;22245;52.832;13.816;2023-01-15T17:10:50;99707.94;;;7.08;58.90
17764;BME280;22245;52.832;13.816;2023-01-15T17:14:19;99707.34;;;7.04;58.71
17764;BME280;22245;52.832;13.816;2023-01-15T17:17:41;99712.19;;;6.99;58.76
17764;BME280;22245;52.832;13.816;2023-01-15T17:21:04;99714.16;;;6.97;58.93
17764;BME280;22245;52.832;13.816;2023-01-15T17:24:26;99717.34;;;6.91;59.32
17764;BME280;22245;52.832;13.816;2023-01-15T17:27:48;99714.38;;;6.84;59.46
17764;BME280;22245;52.832;13.816;2023-01-15T17:31:23;99723.53;;;6.80;59.44
17764;BME280;22245;52.832;13.816;2023-01-15T17:34:46;99715.00;;;6.76;59.42
17764;BME280;22245;52.832;13.816;2023-01-15T17:38:09;99717.53;;;6.78;59.44
17764;BME280;22245;52.832;13.816;2023-01-15T17:41:33;99727.28;;;6.77;59.66
17764;BME280;22245;52.832;13.816;2023-01-15T17:44:55;99728.94;;;6.78;59.48
17764;BME280;22245;52.832;13.816;2023-01-15T17:48:18;99727.16;;;6.79;59.12
17764;BME280;22245;52.832;13.816;2023-01-15T17:51:40;99722.69;;;6.79;59.07
17764;BME280;22245;52.832;13.816;2023-01-15T17:55:02;99731.34;;;6.81;59.53
17764;BME280;22245;52.832;13.816;2023-01-15T17:58:41;99721.16;;;6.77;58.91
17764;BME280;22245;52.832;13.816;2023-01-15T18:02:20;99724.78;;;6.76;58.88
17764;BME280;22245;52.832;13.816;2023-01-15T18:06:01;99732.97;;;6.73;59.59
17764;BME280;22245;52.832;13.816;2023-01-15T18:09:23;99736.34;;;6.75;59.38
17764;BME280;22245;52.832;13.816;2023-01-15T18:12:45;99735.47;;;6.74;59.13
17764;BME280;22245;52.832;13.816;2023-01-15T18:16:07;99736.34;;;6.75;59.19
17764;BME280;22245;52.832;13.816;2023-01-15T18:19:29;99718.78;;;6.74;58.95
17764;BME280;22245;52.832;13.816;2023-01-15T18:22:52;99734.66;;;6.74;59.41
17764;BME280;22245;52.832;13.816;2023-01-15T18:26:14;99737.16;;;6.75;58.98
17764;BME280;22245;52.832;13.816;2023-01-15T18:29:36;99740.22;;;6.71;59.07
17764;BME280;22245;52.832;13.816;2023-01-15T18:32:59;99743.56;;;6.73;59.32